Time;durP1;ratioP1;P1;durP2;ratioP2;P2;SDS_P1;SDS_P2;PMS_P1;PMS_P2;Temp;Humidity;BMP_temperature;BMP_pressure;BME280_temperature;BME280_humidity;BME280_pressure;Samples;Min_cycle;Max_cycle;Signal;HPM_P1;HPM_P2
2024/02/03 10:34:06;;;;;;;11.40;5.88;;;;;;;5.29;100.00;97851.38;2094246;28;20562;-68
2024/02/03 10:37:09;;;;;;;8.68;5.20;;;;;;;5.49;98.92;97847.84;2084143;27;20540;-66
2024/02/03 10:40:33;;;;;;;10.57;6.22;;;;;;;5.87;97.46;97844.16;2083375;28;20557;-65
2024/02/03 10:41:38;;;;;;;7.78;4.78;;;;;;;6.15;95.68;97838.81;2083367;28;20196;-65
2024/02/03 10:42:45;;;;;;;6.65;4.20;;;;;;;6.14;94.63;97842.28;2081773;28;20211;-66
2024/02/03 10:43:51;;;;;;;6.90;4.05;;;;;;;5.98;93.92;97832.03;2080477;28;20201;-66
2024/02/03 10:44:58;;;;;;;7.68;4.28;;;;;;;6.08;93.54;97844.91;2078014;28;20283;-65
2024/02/03 10:46:04;;;;;;;10.40;3.30;;;;;;;6.14;93.34;97839.69;2076179;28;20772;-68
2024/02/03 10:47:06;;;;;;;7.63;4.03;;;;;;;6.19;93.29;97830.13;2070913;28;20201;-68
2024/02/03 10:48:14;;;;;;;6.45;3.17;;;;;;;6.26;93.03;97843.91;2075976;28;20197;-68
2024/02/03 10:49:19;;;;;;;9.77;2.28;;;;;;;6.26;91.29;97839.59;2069616;28;20767;-68
2024/02/03 10:50:26;;;;;;;6.15;3.22;;;;;;;6.41;91.51;97830.78;2068970;28;20218;-68
2024/02/03 10:51:30;;;;;;;5.22;2.38;;;;;;;6.38;91.00;97838.63;2069125;28;20210;-68
2024/02/03 10:52:33;;;;;;;3.95;2.25;;;;;;;6.34;90.17;97832.59;2073891;28;20197;-68
2024/02/03 10:53:44;;;;;;;3.45;2.17;;;;;;;6.30;89.82;97806.72;2073160;28;20197;-70
2024/02/03 10:54:51;;;;;;;3.17;1.70;;;;;;;6.45;90.05;97829.91;2080169;28;20700;-68
2024/02/03 10:55:55;;;;;;;3.97;2.42;;;;;;;6.50;89.77;97825.53;2078124;28;20202;-68
2024/02/03 10:56:59;;;;;;;3.28;1.67;;;;;;;6.69;89.83;97835.72;2068604;28;20676;-68
2024/02/03 10:58:04;;;;;;;3.63;2.30;;;;;;;6.69;89.33;97831.41;2071218;28;20201;-69
2024/02/03 10:59:06;;;;;;;3.47;1.75;;;;;;;6.72;88.73;97833.09;2073877;28;20716;-69
2024/02/03 11:00:09;;;;;;;9.93;2.20;;;;;;;6.82;88.41;97839.06;2074181;28;20311;-68
2024/02/03 11:01:20;;;;;;;2.47;1.60;;;;;;;6.73;87.73;97832.25;2071366;28;20207;-68
2024/02/03 11:02:22;;;;;;;4.13;2.30;;;;;;;6.63;87.65;97834.06;2071734;28;20198;-68
2024/02/03 11:03:24;;;;;;;3.17;1.67;;;;;;;6.73;87.92;97833.97;2078709;28;20202;-68
2024/02/03 11:04:25;;;;;;;1.88;0.95;;;;;;;6.65;86.75;97827.13;2075351;28;20227;-68
2024/02/03 11:05:28;;;;;;;2.70;1.10;;;;;;;6.64;87.25;97817.63;2068527;28;20616;-68
2024/02/03 11:06:33;;;;;;;1.90;1.15;;;;;;;6.70;87.04;97822.75;2073995;28;20198;-68
2024/02/03 11:07:36;;;;;;;2.03;1.02;;;;;;;6.82;86.07;97826.09;2074028;28;20289;-68
2024/02/03 11:08:42;;;;;;;1.90;1.15;;;;;;;6.85;85.47;97818.25;2071116;28;20733;-68
2024/02/03 11:09:44;;;;;;;1.33;0.80;;;;;;;6.91;85.53;97819.91;2071145;28;20225;-67
2024/02/03 11:10:50;;;;;;;1.90;1.02;;;;;;;7.14;85.46;97815.31;2071197;28;20690;-68
2024/02/03 11:11:54;;;;;;;3.05;1.00;;;;;;;7.85;83.43;97822.16;2071171;28;20295;-65
2024/02/03 11:13:23;;;;;;;2.15;1.23;;;;;;;7.62;83.20;97819.03;2075727;28;20250;-65
2024/02/03 11:14:28;;;;;;;1.20;0.75;;;;;;;7.61;82.77;97815.56;2067457;28;20209;-65
2024/02/03 11:15:39;;;;;;;1.65;0.85;;;;;;;7.56;82.68;97812.16;2071087;28;20202;-65
2024/02/03 11:16:42;;;;;;;2.35;0.90;;;;;;;7.51;83.36;97819.19;2072376;28;20202;-69
2024/02/03 11:17:44;;;;;;;1.45;0.70;;;;;;;7.61;83.38;97820.75;2060433;28;20240;-69
2024/02/03 11:18:50;;;;;;;1.63;0.65;;;;;;;7.37;82.73;97814.16;2074522;28;20209;-68
2024/02/03 11:19:53;;;;;;;1.20;0.63;;;;;;;7.49;83.06;97820.94;2071766;28;20229;-68
2024/02/03 11:21:05;;;;;;;1.88;0.73;;;;;;;7.38;83.21;97815.00;2072656;28;20201;-69
2024/02/03 11:22:07;;;;;;;1.98;0.80;;;;;;;7.31;83.67;97804.72;2075227;28;20256;-69
2024/02/03 11:23:13;;;;;;;1.60;0.85;;;;;;;7.26;83.46;97803.94;2067043;28;20728;-69
2024/02/03 11:24:14;;;;;;;2.80;0.73;;;;;;;7.23;83.63;97811.75;2070542;28;20202;-68
2024/02/03 11:25:16;;;;;;;2.00;0.93;;;;;;;7.28;83.36;97809.94;2073858;28;20272;-68
2024/02/03 11:26:17;;;;;;;2.17;1.13;;;;;;;7.30;83.24;97807.31;2073669;28;20213;-67
2024/02/03 11:27:19;;;;;;;1.33;0.60;;;;;;;7.21;83.13;97799.66;2066251;28;20457;-67
2024/02/03 11:28:20;;;;;;;2.47;0.85;;;;;;;7.27;83.56;97816.00;2070032;28;20202;-67
2024/02/03 11:29:23;;;;;;;10.98;1.20;;;;;;;7.16;83.54;97799.69;2069764;28;20203;-67
2024/02/03 11:30:24;;;;;;;2.65;1.02;;;;;;;7.34;84.03;97811.63;2068279;28;20209;-67
2024/02/03 11:31:30;;;;;;;1.67;0.80;;;;;;;7.39;83.74;97816.75;2071841;28;20203;-67
2024/02/03 11:32:32;;;;;;;1.25;0.60;;;;;;;7.25;83.38;97811.72;2070969;28;20539;-67
2024/02/03 11:33:41;;;;;;;1.70;0.70;;;;;;;7.21;83.25;97808.28;2069693;28;20321;-67
2024/02/03 11:34:42;;;;;;;1.50;0.60;;;;;;;7.26;83.62;97810.84;2070437;28;20666;-64
2024/02/03 11:35:46;;;;;;;2.40;0.80;;;;;;;7.24;84.48;97810.00;2071271;28;20290;-64
2024/02/03 11:36:48;;;;;;;1.00;0.60;;;;;;;7.38;84.28;97804.63;2073417;28;20201;-64
2024/02/03 11:37:49;;;;;;;1.23;0.70;;;;;;;7.36;83.66;97807.25;2070631;28;20664;-64
2024/02/03 11:38:52;;;;;;;1.60;0.80;;;;;;;7.33;84.04;97808.13;2069155;28;20205;-64
2024/02/03 11:39:53;;;;;;;2.42;0.80;;;;;;;7.23;83.40;97788.34;2070843;28;20765;-64
2024/02/03 11:40:56;;;;;;;1.95;0.80;;;;;;;7.27;84.01;97797.81;2071844;28;20319;-63
2024/02/03 11:42:06;;;;;;;1.90;0.80;;;;;;;7.31;84.50;97799.53;2071903;28;20209;-66
2024/02/03 11:43:08;;;;;;;1.60;0.70;;;;;;;7.40;83.58;97808.06;2071639;28;20608;-64
2024/02/03 11:44:10;;;;;;;1.40;0.70;;;;;;;7.30;83.73;97797.81;2073822;28;20285;-64
2024/02/03 11:45:19;;;;;;;1.73;0.80;;;;;;;7.30;83.69;97795.19;2071800;28;20575;-64
2024/02/03 11:46:21;;;;;;;1.88;0.80;;;;;;;7.28;83.76;97794.34;2071035;28;20202;-64
2024/02/03 11:47:23;;;;;;;1.55;0.70;;;;;;;7.28;84.19;97798.69;2072040;28;20198;-64
2024/02/03 11:48:25;;;;;;;1.23;0.70;;;;;;;7.25;83.79;97797.00;2072124;28;20225;-64
2024/02/03 11:49:27;;;;;;;1.08;0.55;;;;;;;7.28;83.98;97796.09;2072118;28;20262;-64
2024/02/03 11:50:29;;;;;;;1.08;0.63;;;;;;;7.25;83.65;97798.72;2072120;28;20696;-64
2024/02/03 11:51:31;;;;;;;1.33;0.80;;;;;;;7.24;84.13;97790.09;2067600;28;20203;-65
2024/02/03 11:52:34;;;;;;;1.20;0.70;;;;;;;7.28;84.01;97799.56;2066819;28;20920;-64
2024/02/03 11:55:49;;;;;;;1.67;0.70;;;;;;;7.44;84.28;97800.22;2084829;28;20541;-65
2024/02/03 11:59:01;;;;;;;2.70;1.00;;;;;;;7.46;83.78;97793.25;2085187;28;20559;-65
2024/02/03 12:02:04;;;;;;;1.10;0.60;;;;;;;7.41;84.34;97796.78;2107475;27;20557;-63
2024/02/03 12:03:05;;;;;;;1.30;0.60;;;;;;;7.47;84.17;97791.53;2108277;28;20638;-66
2024/02/03 12:05:47;;;;;;;2.10;0.80;;;;;;;7.38;83.54;97791.63;2083663;28;20919;-66
2024/02/03 12:08:22;;;;;;;3.38;1.10;;;;;;;7.34;84.06;97798.63;2100206;27;20556;-68
2024/02/03 12:34:27;;;;;;;1.40;0.60;;;;;;;7.51;83.23;97765.44;2083589;28;20560;-68
2024/02/03 12:37:01;;;;;;;1.67;0.80;;;;;;;7.56;83.64;97778.38;2082285;28;20575;-68
2024/02/03 12:38:03;;;;;;;8.75;1.00;;;;;;;7.70;83.94;97769.53;2077159;28;20260;-69
2024/02/03 12:40:14;;;;;;;1.80;0.60;;;;;;;7.71;83.39;97784.22;2093801;27;20567;-68
2024/02/03 13:22:04;;;;;;;3.75;1.27;;;;;;;7.55;84.18;97734.22;2084419;28;20561;-63
2024/02/03 13:24:25;;;;;;;3.45;1.10;;;;;;;7.79;83.89;97746.81;2081551;28;20912;-67
2024/02/03 13:26:51;;;;;;;2.17;0.88;;;;;;;7.98;83.08;97755.19;2091442;28;21066;-68
2024/02/03 13:27:52;;;;;;;2.38;0.60;;;;;;;7.96;82.93;97754.38;2089591;28;20281;-68
2024/02/03 13:28:54;;;;;;;2.22;0.80;;;;;;;7.75;83.07;97726.13;2089726;28;20246;-68
2024/02/03 13:30:58;;;;;;;3.28;1.17;;;;;;;7.89;83.25;97750.16;2084511;28;20941;-66
2024/02/03 13:32:01;;;;;;;1.65;0.90;;;;;;;7.96;82.95;97753.50;2081431;28;20203;-66
2024/02/03 13:33:04;;;;;;;1.58;0.60;;;;;;;8.14;82.54;97747.16;2086255;28;20946;-67
2024/02/03 13:34:05;;;;;;;1.85;0.60;;;;;;;8.12;82.07;97747.16;2086206;28;20196;-66
2024/02/03 13:35:07;;;;;;;1.30;0.50;;;;;;;8.13;82.00;97754.06;2072696;28;20279;-69
2024/02/03 13:36:09;;;;;;;1.35;0.57;;;;;;;8.12;82.15;97752.34;2073363;28;20197;-69
2024/02/03 13:37:11;;;;;;;1.10;0.60;;;;;;;8.08;82.19;97760.25;2073340;28;20202;-68
2024/02/03 13:38:12;;;;;;;2.00;0.80;;;;;;;8.22;81.76;97750.44;2079648;28;20266;-69
2024/02/03 13:39:14;;;;;;;1.10;0.63;;;;;;;8.30;81.66;97748.59;2073509;28;20652;-69
2024/02/03 13:40:15;;;;;;;2.75;0.60;;;;;;;8.37;81.48;97751.94;2072459;28;20233;-69
2024/02/03 13:41:17;;;;;;;1.80;0.70;;;;;;;8.31;81.12;97747.69;2074459;28;20284;-69
2024/02/03 13:42:18;;;;;;;4.85;1.00;;;;;;;8.27;80.50;97759.03;2073591;28;20192;-69
2024/02/03 13:43:20;;;;;;;3.45;1.00;;;;;;;8.22;81.36;97747.84;2080409;28;20201;-68
2024/02/03 13:44:21;;;;;;;2.70;1.10;;;;;;;8.29;81.71;97735.59;2073631;28;20209;-68
2024/02/03 13:45:23;;;;;;;4.63;1.05;;;;;;;8.82;80.29;97744.16;2066904;28;20275;-69
2024/02/03 13:46:26;;;;;;;2.60;1.10;;;;;;;8.76;79.31;97746.88;2073008;28;20668;-68
2024/02/03 13:47:28;;;;;;;3.88;0.80;;;;;;;8.98;78.79;97752.50;2073800;28;20193;-69
2024/02/03 13:48:29;;;;;;;3.40;1.10;;;;;;;8.77;78.75;97747.72;2081115;28;20228;-68
2024/02/03 13:49:31;;;;;;;2.05;0.70;;;;;;;8.52;79.37;97747.34;2072652;28;20201;-68
2024/02/03 13:50:32;;;;;;;2.20;0.80;;;;;;;8.43;79.73;97744.00;2070205;28;20260;-69
2024/02/03 13:51:34;;;;;;;2.63;0.95;;;;;;;8.33;80.06;97745.06;2071291;28;20336;-68
2024/02/03 13:52:36;;;;;;;6.70;1.30;;;;;;;8.10;80.74;97724.66;2072460;28;20217;-68
2024/02/03 13:53:37;;;;;;;4.75;1.58;;;;;;;8.15;81.09;97741.03;2072835;28;20197;-68
2024/02/03 13:54:39;;;;;;;2.40;1.00;;;;;;;8.14;81.02;97740.19;2071197;28;20194;-68
2024/02/03 13:55:41;;;;;;;3.38;1.05;;;;;;;8.07;81.49;97742.91;2075187;28;20204;-68
2024/02/03 13:56:43;;;;;;;2.03;0.80;;;;;;;8.13;81.28;97741.06;2074521;28;20197;-69
2024/02/03 13:57:45;;;;;;;2.75;0.73;;;;;;;8.15;81.11;97741.91;2073654;28;20716;-68
2024/02/03 13:58:46;;;;;;;3.85;0.73;;;;;;;8.19;81.65;97742.72;2073617;28;20642;-65
2024/02/03 13:59:48;;;;;;;1.50;0.70;;;;;;;8.06;81.22;97749.84;2073132;28;20643;-65
2024/02/03 14:00:49;;;;;;;2.08;0.95;;;;;;;8.00;81.30;97740.41;2072091;28;20197;-65
2024/02/03 14:01:51;;;;;;;3.35;1.17;;;;;;;8.09;81.72;97743.75;2074152;28;20720;-65
2024/02/03 14:02:52;;;;;;;2.10;0.93;;;;;;;8.06;81.59;97747.25;2073961;28;20204;-65
2024/02/03 14:03:54;;;;;;;1.52;0.80;;;;;;;7.97;82.25;97743.09;2070264;28;20211;-65
2024/02/03 14:04:55;;;;;;;1.45;0.70;;;;;;;8.03;82.32;97742.09;2070339;28;20222;-65
2024/02/03 14:05:58;;;;;;;1.55;0.85;;;;;;;7.90;82.04;97730.19;2073961;28;20211;-65
2024/02/03 14:06:59;;;;;;;1.40;0.70;;;;;;;7.80;82.12;97751.16;2070257;28;20252;-65
2024/02/03 14:08:03;;;;;;;1.45;0.70;;;;;;;7.88;82.39;97743.22;2070785;28;20198;-65
2024/02/03 14:09:04;;;;;;;2.50;1.10;;;;;;;7.93;82.53;97745.75;2070111;28;20597;-65
2024/02/03 14:10:06;;;;;;;2.42;1.10;;;;;;;7.84;83.03;97734.59;2072704;28;20317;-65
2024/02/03 14:11:08;;;;;;;1.95;0.85;;;;;;;7.80;82.70;97751.16;2072355;28;20217;-65
2024/02/03 14:12:09;;;;;;;4.80;1.20;;;;;;;7.74;83.16;97737.38;2070283;28;20205;-65
2024/02/03 14:13:13;;;;;;;2.17;0.90;;;;;;;7.75;83.20;97752.13;2072630;28;20281;-65
2024/02/03 14:16:47;;;;;;;2.63;1.00;;;;;;;7.68;84.17;97752.22;2090766;28;20876;-63
2024/02/03 14:20:54;;;;;;;1.48;0.80;;;;;;;7.45;84.35;97730.88;2084394;28;20554;-63
2024/02/03 14:24:25;;;;;;;2.10;1.10;;;;;;;7.48;83.88;97741.25;2082575;28;20566;-65
